createdAt,value
2023-01-15T00:02:07.079Z,62006.19
2023-01-15T00:04:33.854Z,62035.66
2023-01-15T00:07:00.347Z,62024.56
2023-01-15T00:09:26.885Z,62014.31
2023-01-15T00:11:53.411Z,62051.03
2023-01-15T00:14:19.905Z,62028.34
2023-01-15T00:16:46.524Z,62056.97
2023-01-15T00:19:13.089Z,62012.66
2023-01-15T00:21:39.669Z,62021.34
2023-01-15T00:24:24.951Z,62047.94
2023-01-15T00:27:10.150Z,62048.50
2023-01-15T00:29:36.703Z,62049.41
2023-01-15T00:32:06.605Z,62062.91
2023-01-15T00:34:33.734Z,62042.41
2023-01-15T00:37:01.312Z,62058.63
2023-01-15T00:39:28.004Z,62043.75
2023-01-15T00:41:55.468Z,62044.56
2023-01-15T00:44:22.619Z,62050.25
2023-01-15T00:46:49.213Z,62045.09
2023-01-15T00:49:15.904Z,62043.47
2023-01-15T00:51:42.489Z,62063.44
2023-01-15T00:54:09.058Z,62038.06
2023-01-15T00:56:36.384Z,62024.19
2023-01-15T00:59:04.536Z,62039.69
2023-01-15T01:01:31.313Z,62021.59
2023-01-15T01:03:58.008Z,62020.53
2023-01-15T01:06:24.709Z,62033.22
2023-01-15T01:08:51.363Z,62032.94
2023-01-15T01:11:21.342Z,62046.16
2023-01-15T01:13:49.086Z,62034.44
2023-01-15T01:16:38.672Z,62047.81
2023-01-15T01:19:08.803Z,62040.78
2023-01-15T01:21:37.912Z,62064.53
2023-01-15T01:24:04.860Z,62049.41
2023-01-15T01:26:31.480Z,62042.94
2023-01-15T01:28:58.367Z,62051.19
2023-01-15T01:31:25.005Z,62018.22
2023-01-15T01:33:54.121Z,62049.41
2023-01-15T01:36:25.652Z,62042.38
2023-01-15T01:38:52.397Z,62061.31
2023-01-15T01:41:39.340Z,62038.63
2023-01-15T01:44:11.441Z,62058.59
2023-01-15T01:46:37.994Z,62049.56
2023-01-15T01:49:09.514Z,62034.03
2023-01-15T01:51:40.903Z,62032.81
2023-01-15T01:54:09.639Z,62040.94
2023-01-15T01:56:36.717Z,62028.34
2023-01-15T01:59:06.795Z,62033.38
2023-01-15T02:01:33.486Z,61993.56
2023-01-15T02:04:00.470Z,62014.31
2023-01-15T02:06:29.128Z,62049.41
2023-01-15T02:08:56.051Z,62012.16
2023-01-15T02:11:24.653Z,62015.00
2023-01-15T02:14:02.967Z,62015.00
2023-01-15T02:16:29.614Z,62041.28
2023-01-15T02:19:21.213Z,62054.28
2023-01-15T02:22:03.058Z,62023.22
2023-01-15T02:24:42.257Z,62010.28
2023-01-15T02:27:21.418Z,61987.59
2023-01-15T12:38:12.742Z,60821.84
2023-01-15T12:40:40.513Z,60821.84
2023-01-15T12:43:35.658Z,60821.84
2023-01-15T12:46:05.966Z,60821.84
2023-01-15T12:48:47.139Z,60821.84
2023-01-15T12:51:24.515Z,60821.84
2023-01-15T12:53:55.784Z,60821.84
2023-01-15T12:56:29.934Z,60821.84
2023-01-15T12:59:11.764Z,60821.84
2023-01-15T13:02:21.258Z,60821.84
2023-01-15T13:04:54.736Z,60821.84
2023-01-15T13:07:24.233Z,60821.84
2023-01-15T13:10:13.195Z,60821.84
2023-01-15T13:12:40.101Z,60821.84
2023-01-15T13:15:07.372Z,60821.84
2023-01-15T13:18:17.167Z,60821.84
2023-01-15T13:20:47.266Z,60821.84
2023-01-15T13:23:50.908Z,60821.84
2023-01-15T13:26:47.904Z,60821.84
2023-01-15T13:29:29.805Z,60821.84
2023-01-15T13:32:12.821Z,60821.84
2023-01-15T13:34:47.351Z,60821.84
2023-01-15T13:37:35.257Z,60821.84
2023-01-15T13:40:17.494Z,60821.84
2023-01-15T13:42:50.342Z,60821.84
2023-01-15T13:45:17.029Z,60821.84
2023-01-15T13:47:50.817Z,60821.84
2023-01-15T13:50:23.300Z,60821.84
2023-01-15T13:52:49.853Z,60821.84
2023-01-15T13:55:16.335Z,60821.84
2023-01-15T13:57:43.683Z,60821.84
2023-01-15T14:00:29.230Z,60821.84
2023-01-15T14:03:02.797Z,60821.84
2023-01-15T14:05:36.622Z,60821.84
2023-01-15T14:08:16.519Z,60821.84
2023-01-15T14:10:43.182Z,60821.84
2023-01-15T14:13:45.536Z,60821.84
2023-01-15T14:46:29.038Z,60821.84
2023-01-15T14:48:55.664Z,60821.84
2023-01-15T14:51:32.578Z,60821.84
2023-01-15T14:54:20.048Z,60821.84
2023-01-15T14:56:53.472Z,60821.84
2023-01-15T14:59:49.163Z,60821.84
2023-01-15T15:02:23.272Z,60821.84
2023-01-15T15:04:54.086Z,60821.84
2023-01-15T15:07:24.529Z,60821.84
2023-01-15T23:26:43.523Z,60821.84
2023-01-15T23:29:10.220Z,60821.84
2023-01-15T23:31:36.942Z,60821.84
2023-01-15T23:34:03.761Z,60821.84
2023-01-15T23:36:30.419Z,60821.84
2023-01-15T23:38:57.198Z,60821.84
2023-01-15T23:41:42.817Z,60821.84
2023-01-15T23:44:38.865Z,60821.84
2023-01-15T23:47:07.527Z,60821.84
2023-01-15T23:49:34.378Z,60821.84
2023-01-15T23:52:01.370Z,60821.84
2023-01-15T23:54:30.192Z,60821.84
2023-01-15T23:56:58.879Z,60821.84
2023-01-15T23:59:25.896Z,60821.84
